Time;durP1;ratioP1;P1;durP2;ratioP2;P2;SDS_P1;SDS_P2;PMS_P1;PMS_P2;Temp;Humidity;BMP_temperature;BMP_pressure;BME280_temperature;BME280_humidity;BME280_pressure;Samples;Min_cycle;Max_cycle;Signal;HPM_P1;HPM_P2
2021/04/20 00:01:42;;;;;;;17.40;10.63;;;5.40;99.90;;;;;;4992319;28;20056;-76
2021/04/20 00:04:08;;;;;;;18.45;10.93;;;5.30;99.90;;;;;;5024840;28;20038;-76
2021/04/20 00:06:33;;;;;;;17.15;11.00;;;5.30;99.90;;;;;;4992225;28;20169;-76
2021/04/20 00:09:00;;;;;;;15.63;10.55;;;5.30;99.90;;;;;;5025796;28;20058;-76
2021/04/20 00:11:25;;;;;;;19.02;11.57;;;5.30;99.90;;;;;;5024766;28;20029;-76
2021/04/20 00:13:51;;;;;;;19.67;11.30;;;5.30;99.90;;;;;;5024873;28;20466;-76
2021/04/20 00:16:17;;;;;;;19.25;11.73;;;5.30;99.90;;;;;;4992481;28;20071;-76
2021/04/20 00:18:42;;;;;;;16.17;10.52;;;5.20;99.90;;;;;;5025724;28;20052;-76
2021/04/20 00:21:08;;;;;;;22.65;12.13;;;5.30;99.90;;;;;;5009414;28;20033;-76
2021/04/20 00:23:34;;;;;;;19.45;11.60;;;5.20;99.90;;;;;;5025602;28;20085;-76
2021/04/20 00:26:00;;;;;;;19.00;11.13;;;5.20;99.90;;;;;;5024671;28;20037;-76
2021/04/20 00:28:27;;;;;;;20.38;11.75;;;5.20;99.90;;;;;;5024657;28;20034;-75
2021/04/20 00:30:53;;;;;;;16.52;10.63;;;5.10;99.90;;;;;;5025790;28;20029;-76
2021/04/20 00:33:20;;;;;;;17.88;10.15;;;5.10;99.90;;;;;;5025860;28;20045;-76
2021/04/20 00:35:46;;;;;;;21.13;11.10;;;5.00;99.90;;;;;;5025678;28;20037;-75
2021/04/20 00:38:12;;;;;;;17.02;10.10;;;5.00;99.90;;;;;;5025592;28;20042;-76
2021/04/20 00:40:38;;;;;;;20.48;11.30;;;5.00;99.90;;;;;;5024486;28;20034;-76
2021/04/20 00:43:05;;;;;;;17.13;10.55;;;5.10;99.90;;;;;;5008062;28;20084;-76
2021/04/20 00:45:32;;;;;;;16.55;10.13;;;5.00;99.90;;;;;;5025702;28;20386;-76
2021/04/20 00:47:59;;;;;;;18.00;10.20;;;5.00;99.90;;;;;;5025448;28;20045;-76
2021/04/20 00:50:32;;;;;;;19.33;11.38;;;4.90;99.90;;;;;;5008025;28;20037;-76
2021/04/20 00:52:58;;;;;;;18.05;10.80;;;4.90;99.90;;;;;;5025495;28;20156;-75
2021/04/20 00:55:24;;;;;;;16.55;9.68;;;4.90;99.90;;;;;;5011203;28;20121;-76
2021/04/20 00:57:50;;;;;;;17.00;9.98;;;4.90;99.90;;;;;;5029318;28;20041;-75
2021/04/20 01:00:22;;;;;;;17.17;9.82;;;4.80;99.90;;;;;;5029650;28;20033;-75
2021/04/20 01:02:48;;;;;;;17.17;9.95;;;4.70;99.90;;;;;;5029540;28;20096;-75
2021/04/20 01:05:35;;;;;;;20.00;10.75;;;4.60;99.90;;;;;;5029324;28;20107;-75
2021/04/20 01:08:10;;;;;;;19.00;11.02;;;4.60;99.90;;;;;;4968417;29;20054;-75
2021/04/20 01:10:38;;;;;;;19.90;10.23;;;4.70;99.90;;;;;;4968770;29;20074;-76
2021/04/20 01:13:05;;;;;;;19.33;11.50;;;4.60;99.90;;;;;;4968649;29;20043;-78
2021/04/20 01:15:32;;;;;;;20.92;11.68;;;4.60;99.90;;;;;;4968649;29;20027;-75
2021/04/20 01:18:17;;;;;;;16.83;10.32;;;4.60;99.90;;;;;;4968525;28;20047;-75
2021/04/20 01:20:45;;;;;;;19.92;10.95;;;4.50;99.90;;;;;;4968410;28;20062;-75
2021/04/20 01:23:13;;;;;;;19.90;11.35;;;4.50;99.90;;;;;;4968433;29;20046;-75
2021/04/20 01:25:40;;;;;;;20.15;10.73;;;4.50;99.90;;;;;;4952283;29;20055;-76
2021/04/20 01:28:06;;;;;;;16.73;9.43;;;4.50;99.90;;;;;;4952275;29;20118;-76
2021/04/20 01:30:34;;;;;;;16.65;10.35;;;4.40;99.90;;;;;;4968572;29;20102;-76
2021/04/20 01:33:06;;;;;;;16.83;9.45;;;4.40;99.90;;;;;;4968370;29;20107;-76
2021/04/20 01:35:36;;;;;;;17.67;9.98;;;4.40;99.90;;;;;;4951909;29;20039;-76
2021/04/20 01:38:05;;;;;;;19.70;10.32;;;4.30;99.90;;;;;;4967991;29;20059;-76
2021/04/20 01:40:32;;;;;;;18.30;9.88;;;4.30;99.90;;;;;;4968306;29;20031;-76
2021/04/20 01:43:01;;;;;;;17.58;9.80;;;4.30;99.90;;;;;;4968002;29;20059;-76
2021/04/20 01:45:29;;;;;;;16.20;9.48;;;4.30;99.90;;;;;;5008173;28;20046;-75
2021/04/20 01:47:55;;;;;;;17.13;10.82;;;4.30;99.90;;;;;;5028686;28;20048;-76
2021/04/20 01:50:22;;;;;;;18.38;10.57;;;4.20;99.90;;;;;;5027514;28;20044;-75
2021/04/20 01:52:48;;;;;;;17.45;9.85;;;4.10;99.90;;;;;;5028711;28;20041;-75
2021/04/20 01:55:14;;;;;;;16.90;9.85;;;4.20;99.90;;;;;;5028707;28;20033;-76
2021/04/20 01:57:44;;;;;;;17.23;10.50;;;4.20;99.90;;;;;;5027235;28;20041;-75
2021/04/20 02:00:11;;;;;;;19.23;9.48;;;4.10;99.90;;;;;;5027562;28;20076;-75
2021/04/20 02:02:39;;;;;;;16.60;10.38;;;3.90;99.90;;;;;;5010956;28;20034;-76
2021/04/20 02:08:02;;;;;;;17.33;10.27;;;4.10;99.90;;;;;;5061405;28;20045;-76
2021/04/20 02:10:29;;;;;;;23.00;11.68;;;3.90;99.90;;;;;;5047026;28;20046;-76
2021/04/20 02:12:54;;;;;;;18.85;11.05;;;3.90;99.90;;;;;;5046802;28;20463;-76
2021/04/20 02:15:22;;;;;;;22.58;11.85;;;4.00;99.90;;;;;;5048040;28;20028;-75
2021/04/20 02:17:48;;;;;;;20.15;10.88;;;4.00;99.90;;;;;;5048034;28;20056;-76
2021/04/20 02:20:15;;;;;;;17.90;9.40;;;3.90;99.90;;;;;;5046677;28;20025;-76
2021/04/20 02:22:46;;;;;;;19.13;10.75;;;3.90;99.90;;;;;;5047867;28;20187;-76
2021/04/20 02:25:14;;;;;;;19.00;11.18;;;3.90;99.90;;;;;;5046639;28;20030;-76
2021/04/20 02:27:40;;;;;;;19.20;11.00;;;3.80;99.90;;;;;;5047744;28;20033;-76
2021/04/20 02:30:09;;;;;;;17.90;10.10;;;3.80;99.90;;;;;;5047755;28;20034;-76
2021/04/20 02:32:36;;;;;;;18.98;10.63;;;3.80;99.90;;;;;;5047758;28;20026;-76
2021/04/20 02:35:03;;;;;;;20.02;9.88;;;3.80;99.90;;;;;;5044889;28;20033;-75
2021/04/20 02:37:29;;;;;;;18.20;10.43;;;3.80;99.90;;;;;;5046221;28;20032;-76
2021/04/20 02:39:55;;;;;;;18.75;10.00;;;3.70;99.90;;;;;;5029048;28;20022;-75
2021/04/20 02:42:22;;;;;;;17.33;9.73;;;3.70;99.90;;;;;;5045872;28;20466;-76
2021/04/20 02:44:47;;;;;;;20.73;11.40;;;3.60;99.90;;;;;;5045662;28;20112;-76
2021/04/20 02:47:14;;;;;;;17.85;10.40;;;3.60;99.90;;;;;;5028908;28;20052;-75
2021/04/20 02:49:39;;;;;;;19.70;11.15;;;3.60;99.90;;;;;;5062198;28;20029;-76
2021/04/20 02:52:05;;;;;;;19.27;10.25;;;3.60;99.90;;;;;;5044583;28;20041;-76
2021/04/20 02:54:31;;;;;;;19.83;11.50;;;3.60;99.90;;;;;;5046659;28;20501;-76
2021/04/20 02:57:00;;;;;;;20.33;11.35;;;3.70;99.90;;;;;;5046640;28;20030;-76
2021/04/20 02:59:26;;;;;;;18.88;11.60;;;3.60;99.90;;;;;;5046506;28;20044;-76
2021/04/20 03:01:52;;;;;;;26.02;13.40;;;3.70;99.90;;;;;;5046773;28;20033;-76
2021/04/20 03:04:19;;;;;;;27.20;15.52;;;4.00;99.90;;;;;;5046194;28;20052;-76
2021/04/20 03:06:45;;;;;;;25.02;13.27;;;4.30;99.90;;;;;;5046076;28;20091;-75
2021/04/20 03:09:15;;;;;;;27.42;14.57;;;4.20;99.90;;;;;;5046026;28;20370;-76
2021/04/20 03:11:53;;;;;;;26.65;14.18;;;4.10;99.90;;;;;;5045473;28;20089;-76
2021/04/20 03:14:19;;;;;;;27.90;14.15;;;4.00;99.90;;;;;;5045119;28;20037;-75
2021/04/20 03:16:45;;;;;;;27.27;13.38;;;4.00;99.90;;;;;;5046122;28;20060;-76
2021/04/20 03:19:11;;;;;;;24.52;13.98;;;4.00;99.90;;;;;;5045313;28;20037;-76
2021/04/20 03:21:37;;;;;;;26.55;15.40;;;4.10;99.90;;;;;;5046267;28;20052;-76
2021/04/20 03:24:04;;;;;;;25.48;13.77;;;4.30;99.90;;;;;;5044728;28;20038;-76
2021/04/20 03:26:38;;;;;;;25.85;13.13;;;4.10;99.90;;;;;;5041804;28;20033;-76
2021/04/20 03:29:06;;;;;;;22.90;12.50;;;4.00;99.90;;;;;;5046163;28;20025;-76
2021/04/20 03:31:35;;;;;;;26.80;14.27;;;3.90;99.90;;;;;;5046217;28;21542;-76
2021/04/20 03:34:24;;;;;;;25.00;12.80;;;3.90;99.90;;;;;;5045856;28;20195;-76
2021/04/20 03:37:01;;;;;;;23.00;12.45;;;3.90;99.90;;;;;;5045448;28;20116;-76
2021/04/20 03:39:29;;;;;;;23.55;13.07;;;3.90;99.90;;;;;;5045904;28;20370;-76
2021/04/20 03:41:57;;;;;;;22.98;12.75;;;3.70;99.90;;;;;;5061246;28;20034;-76
2021/04/20 03:44:30;;;;;;;25.45;14.10;;;3.90;99.90;;;;;;5045798;28;20120;-76
2021/04/20 03:47:00;;;;;;;23.52;13.15;;;3.90;99.90;;;;;;5061048;28;20093;-76
2021/04/20 03:49:37;;;;;;;25.95;13.70;;;3.70;99.90;;;;;;5045773;28;20104;-76
2021/04/20 03:52:07;;;;;;;24.08;13.75;;;3.60;99.90;;;;;;5044454;28;20059;-76
2021/04/20 03:54:34;;;;;;;;;;;3.80;99.90;;;;;;5044689;28;20029;-76
2021/04/20 03:57:01;;;;;;;24.40;11.82;;;3.80;99.90;;;;;;5060867;28;19909;-76
2021/04/20 03:59:29;;;;;;;23.02;12.43;;;3.60;99.90;;;;;;5027592;28;20067;-76
2021/04/20 04:01:57;;;;;;;24.25;12.38;;;3.60;99.90;;;;;;5044482;28;20029;-76
2021/04/20 04:04:26;;;;;;;22.08;12.57;;;3.50;99.90;;;;;;5044260;28;20029;-76
2021/04/20 04:06:53;;;;;;;26.45;14.63;;;3.50;99.90;;;;;;5043803;28;20041;-75
2021/04/20 04:09:19;;;;;;;22.77;12.05;;;3.40;99.90;;;;;;5019617;28;20096;-77
2021/04/20 04:11:53;;;;;;;25.27;13.18;;;3.50;99.90;;;;;;5038673;28;20026;-77
2021/04/20 04:14:20;;;;;;;22.60;12.45;;;3.50;99.90;;;;;;5037747;28;20112;-77
2021/04/20 04:16:48;;;;;;;26.88;14.10;;;3.60;99.90;;;;;;5040101;28;20021;-77
2021/04/20 04:19:15;;;;;;;23.67;13.55;;;3.60;99.90;;;;;;5042633;28;20048;-76
2021/04/20 04:21:46;;;;;;;23.98;13.30;;;3.50;99.90;;;;;;5038071;28;20033;-77
2021/04/20 04:24:16;;;;;;;26.52;13.15;;;3.50;99.90;;;;;;5029228;28;20041;-77
2021/04/20 04:26:49;;;;;;;22.38;11.52;;;3.50;99.90;;;;;;5054389;28;20092;-80
2021/04/20 04:29:16;;;;;;;26.52;13.77;;;3.50;99.90;;;;;;5021667;28;20099;-79
2021/04/20 04:31:44;;;;;;;24.90;13.05;;;3.50;99.90;;;;;;5037312;28;20053;-79
2021/04/20 04:34:12;;;;;;;23.10;12.73;;;3.40;99.90;;;;;;5016506;28;20052;-79
2021/04/20 04:36:40;;;;;;;24.08;12.85;;;3.40;99.90;;;;;;5040129;28;20042;-79
2021/04/20 04:39:14;;;;;;;24.38;12.32;;;3.40;99.90;;;;;;5042110;28;20072;-79
2021/04/20 04:41:42;;;;;;;25.55;13.02;;;3.30;99.90;;;;;;5041092;28;20048;-77
2021/04/20 04:44:10;;;;;;;26.42;13.00;;;3.20;99.90;;;;;;5058481;28;20033;-77
2021/04/20 04:46:36;;;;;;;27.83;12.85;;;3.30;99.90;;;;;;5057754;28;20040;-77
2021/04/20 04:49:02;;;;;;;23.17;13.68;;;3.40;99.90;;;;;;5042231;28;20030;-77
2021/04/20 04:51:28;;;;;;;25.70;13.45;;;3.40;99.90;;;;;;5041823;28;20338;-77
2021/04/20 04:53:56;;;;;;;24.80;12.52;;;3.40;99.90;;;;;;5041328;28;20072;-77
2021/04/20 04:56:23;;;;;;;23.02;13.05;;;3.30;99.90;;;;;;5041013;28;20084;-78
2021/04/20 04:58:51;;;;;;;25.90;13.52;;;3.30;99.90;;;;;;5040873;28;20044;-77
2021/04/20 05:01:18;;;;;;;25.55;13.45;;;3.50;99.90;;;;;;5038129;28;20026;-77
2021/04/20 05:03:43;;;;;;;22.40;12.70;;;3.50;99.90;;;;;;5042794;28;20030;-77
2021/04/20 05:06:14;;;;;;;23.38;12.60;;;3.60;99.90;;;;;;5042816;28;20028;-80
2021/04/20 05:08:40;;;;;;;23.05;13.07;;;3.50;99.90;;;;;;5040026;28;20037;-78
2021/04/20 05:11:06;;;;;;;23.13;12.40;;;3.50;99.90;;;;;;5022133;28;20072;-78
2021/04/20 05:13:32;;;;;;;23.17;12.00;;;3.50;99.90;;;;;;5017641;28;20022;-77
2021/04/20 05:16:08;;;;;;;24.52;13.15;;;3.50;99.90;;;;;;5057281;28;20120;-77
2021/04/20 05:18:36;;;;;;;24.88;12.30;;;3.40;99.90;;;;;;5055585;28;20044;-76
2021/04/20 05:21:02;;;;;;;24.02;12.40;;;3.50;99.90;;;;;;5039135;28;20061;-76
2021/04/20 05:23:28;;;;;;;27.52;12.82;;;3.50;99.90;;;;;;5042716;28;20053;-77
2021/04/20 05:25:54;;;;;;;24.88;13.30;;;3.60;99.90;;;;;;5045049;28;20060;-76
2021/04/20 05:28:21;;;;;;;25.52;12.90;;;3.80;99.90;;;;;;5044868;28;20085;-76
2021/04/20 05:30:47;;;;;;;23.60;13.15;;;4.00;99.90;;;;;;5040792;28;20029;-76
2021/04/20 05:33:14;;;;;;;23.58;12.60;;;3.90;99.90;;;;;;5042126;28;20296;-77
2021/04/20 05:35:41;;;;;;;25.70;13.07;;;3.90;99.90;;;;;;5036349;28;20030;-77
2021/04/20 05:38:07;;;;;;;26.98;13.88;;;4.00;99.90;;;;;;5041012;28;20033;-77
2021/04/20 05:40:37;;;;;;;31.10;15.75;;;4.10;99.90;;;;;;5039130;28;20056;-77
2021/04/20 05:43:02;;;;;;;29.45;14.57;;;4.40;99.90;;;;;;5038424;28;20045;-77
2021/04/20 05:45:28;;;;;;;31.33;15.48;;;4.40;99.90;;;;;;5043991;28;20041;-77
2021/04/20 05:47:54;;;;;;;28.48;15.80;;;4.40;99.90;;;;;;5046119;28;20044;-77
2021/04/20 05:50:22;;;;;;;29.95;15.38;;;4.60;99.90;;;;;;5040443;28;20534;-77
2021/04/20 05:52:48;;;;;;;33.13;17.35;;;4.70;99.90;;;;;;5025472;28;20034;-77
2021/04/20 05:55:15;;;;;;;35.95;18.85;;;4.90;99.90;;;;;;5044202;28;20037;-77
2021/04/20 05:57:48;;;;;;;32.13;18.83;;;5.00;99.90;;;;;;5023992;28;20391;-77
2021/04/20 06:00:15;;;;;;;30.95;17.90;;;5.30;99.90;;;;;;5042954;28;20037;-77
2021/04/20 06:02:42;;;;;;;34.85;18.75;;;5.30;99.90;;;;;;5043710;28;20048;-76
2021/04/20 06:05:29;;;;;;;31.45;17.52;;;5.30;99.90;;;;;;5037438;28;20037;-77
2021/04/20 06:07:59;;;;;;;35.35;18.27;;;5.40;99.90;;;;;;5004338;28;20049;-77
2021/04/20 06:10:25;;;;;;;33.97;18.30;;;5.70;99.90;;;;;;5001053;28;20122;-76
2021/04/20 06:12:51;;;;;;;29.83;17.75;;;5.70;99.90;;;;;;4975687;28;20106;-77
2021/04/20 06:15:20;;;;;;;33.72;18.23;;;5.70;99.90;;;;;;5010950;28;20030;-76
2021/04/20 06:17:46;;;;;;;35.60;21.20;;;5.90;99.90;;;;;;5001916;28;20187;-77
2021/04/20 06:20:15;;;;;;;38.65;21.50;;;6.00;99.90;;;;;;5021635;28;20110;-77
2021/04/20 06:22:45;;;;;;;35.83;20.77;;;6.20;99.90;;;;;;5022925;28;20030;-77
2021/04/20 06:25:12;;;;;;;38.23;20.60;;;6.30;99.90;;;;;;5007129;28;20041;-77
2021/04/20 06:27:39;;;;;;;35.22;19.17;;;6.40;99.90;;;;;;4987169;28;20364;-77
2021/04/20 06:30:06;;;;;;;36.20;21.42;;;6.50;99.90;;;;;;5023018;28;20065;-78
2021/04/20 06:32:31;;;;;;;38.65;21.52;;;6.70;99.90;;;;;;5023172;28;20038;-77
2021/04/20 06:34:57;;;;;;;40.08;22.70;;;7.00;99.90;;;;;;5067787;22;20389;-77
2021/04/20 06:37:24;;;;;;;44.08;24.75;;;7.20;99.90;;;;;;5048307;28;20044;-77
2021/04/20 06:39:50;;;;;;;42.67;22.40;;;7.40;99.90;;;;;;5052338;28;20404;-77
2021/04/20 06:42:20;;;;;;;37.70;21.60;;;7.60;99.90;;;;;;5030014;28;20033;-77
2021/04/20 06:45:03;;;;;;;44.28;23.73;;;7.80;99.90;;;;;;5046197;28;20030;-77
2021/04/20 06:47:42;;;;;;;39.80;23.70;;;8.10;99.90;;;;;;5045513;28;20033;-77
2021/04/20 06:50:11;;;;;;;42.85;22.98;;;8.30;99.90;;;;;;5045650;28;20121;-78
2021/04/20 06:52:58;;;;;;;39.53;23.75;;;8.60;99.90;;;;;;5028827;28;20108;-77
2021/04/20 06:55:33;;;;;;;41.72;26.15;;;8.80;99.90;;;;;;5046928;28;20033;-77
2021/04/20 06:58:12;;;;;;;41.10;24.02;;;8.90;99.90;;;;;;5045076;28;20033;-77
2021/04/20 07:00:45;;;;;;;39.75;24.20;;;9.10;99.90;;;;;;5045481;28;20397;-77
2021/04/20 07:03:19;;;;;;;43.70;26.13;;;9.40;99.90;;;;;;5043747;28;20416;-77
2021/04/20 07:06:25;;;;;;;42.70;25.08;;;9.60;99.90;;;;;;5045011;28;20047;-77
2021/04/20 07:09:02;;;;;;;42.30;25.70;;;9.80;99.90;;;;;;5046289;28;20045;-77
2021/04/20 07:11:31;;;;;;;43.10;25.35;;;10.00;99.90;;;;;;5046241;28;20026;-78
2021/04/20 07:14:01;;;;;;;39.70;25.20;;;10.10;99.90;;;;;;5028441;28;20029;-78
2021/04/20 07:16:39;;;;;;;41.95;25.45;;;10.30;99.90;;;;;;5028343;28;20277;-78
2021/04/20 07:19:36;;;;;;;43.85;26.15;;;10.50;99.90;;;;;;5044599;28;20037;-78
2021/04/20 07:22:38;;;;;;;40.35;25.20;;;10.70;99.90;;;;;;5044686;28;20044;-78
2021/04/20 07:25:37;;;;;;;38.40;23.88;;;10.90;99.90;;;;;;5045961;28;20029;-78
2021/04/20 07:28:31;;;;;;;43.90;24.25;;;11.10;99.90;;;;;;5030191;28;20064;-79
2021/04/20 07:31:18;;;;;;;35.00;22.15;;;11.20;99.90;;;;;;5063890;28;20120;-78
2021/04/20 07:34:31;;;;;;;35.72;22.70;;;11.40;99.90;;;;;;5055792;28;20021;-78
2021/04/20 07:37:24;;;;;;;35.15;22.63;;;11.50;99.90;;;;;;4969933;28;20027;-78
2021/04/20 07:40:08;;;;;;;36.63;22.35;;;11.60;99.90;;;;;;5002678;28;20049;-78
2021/04/20 07:43:05;;;;;;;33.47;22.33;;;11.90;99.90;;;;;;4985965;28;20031;-78
2021/04/20 07:45:53;;;;;;;33.10;22.25;;;12.10;99.90;;;;;;4986661;28;20038;-78
2021/04/20 07:48:49;;;;;;;32.40;20.27;;;12.20;99.90;;;;;;5002918;28;20036;-78
2021/04/20 07:51:38;;;;;;;30.45;19.90;;;12.40;99.90;;;;;;4988185;28;20045;-78
2021/04/20 07:54:14;;;;;;;28.85;17.75;;;12.50;99.90;;;;;;5003119;28;20513;-78
2021/04/20 07:56:51;;;;;;;29.52;16.63;;;12.60;99.90;;;;;;4986842;28;20034;-78
2021/04/20 07:59:28;;;;;;;28.35;18.23;;;12.60;99.90;;;;;;4986786;28;20042;-78
2021/04/20 08:02:00;;;;;;;25.58;16.33;;;12.60;99.90;;;;;;4987331;28;20030;-78
2021/04/20 08:04:41;;;;;;;25.17;16.80;;;12.80;99.90;;;;;;4985953;28;20034;-78
2021/04/20 08:07:13;;;;;;;31.25;19.35;;;13.00;99.90;;;;;;4986555;28;20038;-78
2021/04/20 08:09:42;;;;;;;26.60;17.42;;;13.20;99.90;;;;;;4985426;28;20026;-79
2021/04/20 08:12:17;;;;;;;29.73;18.88;;;13.40;99.90;;;;;;5042317;28;20021;-79
2021/04/20 08:14:59;;;;;;;29.25;18.08;;;13.20;99.90;;;;;;5043135;28;20100;-79
2021/04/20 08:17:32;;;;;;;25.73;16.13;;;13.30;99.90;;;;;;5017168;28;20042;-78
2021/04/20 08:20:04;;;;;;;28.02;18.13;;;13.50;99.90;;;;;;5043373;28;20041;-78
2021/04/20 08:22:30;;;;;;;28.02;18.23;;;13.60;99.90;;;;;;5023045;28;20048;-80
2021/04/20 08:25:07;;;;;;;23.20;16.08;;;13.80;99.90;;;;;;5044529;28;20462;-79
2021/04/20 08:27:45;;;;;;;21.08;14.07;;;14.20;99.90;;;;;;5024180;28;20021;-78
2021/04/20 08:30:16;;;;;;;24.15;16.23;;;14.20;99.90;;;;;;5042608;28;20033;-79
2021/04/20 08:32:45;;;;;;;25.65;18.52;;;14.00;99.90;;;;;;5043279;28;20026;-79
2021/04/20 08:35:20;;;;;;;24.15;16.55;;;13.80;99.90;;;;;;5026615;28;20490;-80
2021/04/20 08:38:13;;;;;;;22.60;14.80;;;13.70;99.90;;;;;;5044298;28;20116;-79
2021/04/20 08:40:50;;;;;;;20.48;13.77;;;14.00;99.90;;;;;;5041979;28;20102;-79
2021/04/20 08:43:33;;;;;;;21.13;11.95;;;14.40;99.90;;;;;;5043258;28;20073;-79
2021/04/20 08:46:09;;;;;;;17.70;11.43;;;14.70;99.90;;;;;;5042908;28;20030;-79
2021/04/20 08:49:04;;;;;;;17.27;11.43;;;14.90;99.90;;;;;;5023750;28;20033;-78
2021/04/20 08:51:55;;;;;;;21.75;13.85;;;14.60;99.90;;;;;;5026582;28;20025;-79
2021/04/20 08:54:40;;;;;;;17.38;12.13;;;14.60;99.90;;;;;;5044344;28;20045;-79
2021/04/20 08:57:23;;;;;;;15.68;10.52;;;15.00;99.90;;;;;;5042874;28;20026;-78
2021/04/20 09:00:13;;;;;;;11.48;7.55;;;15.40;99.90;;;;;;5026231;28;20105;-79
2021/04/20 09:03:02;;;;;;;14.48;10.85;;;15.30;99.90;;;;;;5042942;28;20029;-79
2021/04/20 09:05:53;;;;;;;14.10;9.57;;;15.00;99.90;;;;;;5042957;28;20033;-79
2021/04/20 09:08:34;;;;;;;12.80;8.55;;;15.30;99.90;;;;;;5042738;28;20051;-79
2021/04/20 09:11:15;;;;;;;10.35;7.57;;;15.50;99.90;;;;;;5026637;28;20109;-80
2021/04/20 09:13:49;;;;;;;11.63;7.22;;;15.60;99.90;;;;;;5026433;28;20358;-80
2021/04/20 09:16:20;;;;;;;10.40;7.68;;;15.90;99.90;;;;;;5028978;28;20485;-81
2021/04/20 09:18:47;;;;;;;10.55;8.48;;;15.90;99.90;;;;;;5046606;28;20037;-80
2021/04/20 09:21:27;;;;;;;12.48;9.07;;;16.10;99.90;;;;;;5044165;28;20032;-79
2021/04/20 09:24:24;;;;;;;15.32;9.52;;;16.20;99.90;;;;;;5030067;28;20059;-79
2021/04/20 09:27:02;;;;;;;12.40;9.10;;;16.20;99.90;;;;;;5023039;28;20041;-79
2021/04/20 09:29:39;;;;;;;14.88;11.38;;;16.20;99.90;;;;;;5048084;28;20029;-79
2021/04/20 09:32:13;;;;;;;14.57;10.75;;;16.20;99.90;;;;;;5030136;28;20084;-79
2021/04/20 09:34:42;;;;;;;15.98;9.57;;;16.50;99.90;;;;;;5046226;28;20101;-79
2021/04/20 09:37:09;;;;;;;18.02;12.40;;;16.70;99.90;;;;;;5046344;28;20030;-80
2021/04/20 09:39:38;;;;;;;16.23;12.32;;;16.20;99.90;;;;;;5046443;28;20045;-79
2021/04/20 09:42:05;;;;;;;14.85;10.30;;;16.40;99.90;;;;;;5029891;28;20025;-79
2021/04/20 09:44:39;;;;;;;12.52;9.25;;;16.50;99.90;;;;;;5046351;28;20029;-79
2021/04/20 09:47:28;;;;;;;12.68;9.35;;;16.70;99.90;;;;;;5047538;28;20051;-79
2021/04/20 09:50:16;;;;;;;13.30;9.15;;;16.90;99.90;;;;;;5046427;28;20065;-79
2021/04/20 09:53:06;;;;;;;14.07;10.70;;;16.80;99.90;;;;;;5046163;28;20439;-79
2021/04/20 09:55:36;;;;;;;20.73;15.68;;;16.70;99.90;;;;;;5029509;28;20030;-79
2021/04/20 09:58:04;;;;;;;16.88;12.82;;;15.90;99.90;;;;;;5046112;28;20109;-79
2021/04/20 10:00:30;;;;;;;18.17;10.57;;;16.00;99.90;;;;;;5045851;28;20097;-79
2021/04/20 10:03:20;;;;;;;16.05;10.50;;;16.20;99.90;;;;;;5029537;28;20056;-79
2021/04/20 10:05:58;;;;;;;14.10;10.27;;;16.80;99.90;;;;;;5028882;28;20032;-79
2021/04/20 10:09:02;;;;;;;12.52;9.40;;;17.00;99.90;;;;;;5045865;28;20085;-79
2021/04/20 10:11:51;;;;;;;17.50;13.05;;;16.60;99.90;;;;;;5045744;28;20453;-79
2021/04/20 10:14:33;;;;;;;15.52;11.27;;;16.60;99.90;;;;;;5029636;28;20173;-79
2021/04/20 10:17:06;;;;;;;17.00;12.73;;;17.10;99.90;;;;;;5046949;28;20040;-79
2021/04/20 10:19:44;;;;;;;15.15;12.90;;;16.90;99.90;;;;;;5046814;28;20034;-79
2021/04/20 10:22:38;;;;;;;15.52;11.40;;;16.70;99.90;;;;;;5042917;28;20036;-79
2021/04/20 10:25:11;;;;;;;16.70;12.00;;;16.90;99.90;;;;;;5028843;28;20064;-79
2021/04/20 10:27:37;;;;;;;18.65;14.20;;;17.10;99.90;;;;;;5044896;28;20438;-79
2021/04/20 10:30:17;;;;;;;17.58;13.55;;;16.60;99.90;;;;;;5045545;28;20040;-79
2021/04/20 10:32:49;;;;;;;16.23;13.25;;;16.50;99.90;;;;;;5045301;28;20026;-79
2021/04/20 10:35:19;;;;;;;13.98;10.63;;;16.50;99.90;;;;;;5044898;28;20112;-80
2021/04/20 10:37:49;;;;;;;14.75;11.23;;;17.00;99.90;;;;;;5042445;28;20251;-79
2021/04/20 10:40:17;;;;;;;14.07;10.45;;;17.10;99.90;;;;;;5028629;28;20022;-79
2021/04/20 10:42:48;;;;;;;15.20;11.85;;;17.20;99.90;;;;;;5028599;28;20097;-80
2021/04/20 10:45:15;;;;;;;19.98;15.15;;;17.30;99.90;;;;;;5044956;28;20033;-79
2021/04/20 10:47:47;;;;;;;22.77;16.95;;;16.90;99.90;;;;;;5046039;28;20021;-79
2021/04/20 10:50:19;;;;;;;23.45;17.40;;;16.90;99.90;;;;;;5045112;28;20037;-79
2021/04/20 10:52:46;;;;;;;20.40;14.60;;;16.80;99.90;;;;;;5028481;28;20022;-79
2021/04/20 10:55:13;;;;;;;17.05;11.43;;;18.20;99.90;;;;;;5028413;28;20025;-80
2021/04/20 10:57:45;;;;;;;14.07;9.68;;;18.40;99.90;;;;;;5044543;28;20538;-79
2021/04/20 11:00:14;;;;;;;12.07;9.15;;;18.00;99.90;;;;;;5028306;28;20042;-79
2021/04/20 11:02:48;;;;;;;11.60;9.07;;;18.30;99.90;;;;;;5044728;28;20462;-79
2021/04/20 11:05:34;;;;;;;13.50;10.50;;;18.40;99.90;;;;;;5045816;28;20025;-80
2021/04/20 11:08:00;;;;;;;10.45;8.02;;;18.20;99.90;;;;;;5049667;22;20049;-79
2021/04/20 11:10:35;;;;;;;9.40;7.90;;;18.60;99.90;;;;;;5028575;28;20044;-80
2021/04/20 11:13:01;;;;;;;13.77;9.98;;;18.80;99.90;;;;;;5046171;28;20041;-79
2021/04/20 11:15:29;;;;;;;11.18;7.57;;;18.10;99.90;;;;;;5011963;28;20052;-79
2021/04/20 11:17:54;;;;;;;8.75;6.70;;;18.40;99.90;;;;;;5028402;28;20072;-80
2021/04/20 11:20:44;;;;;;;12.85;10.35;;;18.70;99.90;;;;;;5012300;28;20029;-80
2021/04/20 11:23:16;;;;;;;;;;;18.20;99.90;;;;;;5011323;28;20022;-80
2021/04/20 11:25:56;;;;;;;18.92;14.18;;;17.80;99.90;;;;;;5013882;28;20000;-80
2021/04/20 11:28:45;;;;;;;17.63;13.48;;;17.00;99.90;;;;;;5029882;28;20021;-80
2021/04/20 11:31:25;;;;;;;12.57;9.50;;;17.00;99.90;;;;;;5013888;28;20095;-80
2021/04/20 11:34:14;;;;;;;11.18;8.93;;;17.50;99.90;;;;;;5029529;28;20040;-80
2021/04/20 11:37:06;;;;;;;9.15;6.50;;;17.70;99.90;;;;;;5012087;28;20022;-80
2021/04/20 11:39:34;;;;;;;15.95;12.23;;;18.20;99.90;;;;;;5005147;28;20065;-80
2021/04/20 11:42:29;;;;;;;12.77;9.75;;;18.00;99.90;;;;;;5013026;28;20021;-80
2021/04/20 11:44:59;;;;;;;16.70;12.10;;;18.50;99.90;;;;;;5010607;28;20025;-80
2021/04/20 11:47:26;;;;;;;16.70;12.52;;;18.20;99.90;;;;;;5029066;28;20081;-79
2021/04/20 11:50:01;;;;;;;16.67;12.35;;;18.20;99.90;;;;;;5028844;28;20045;-81
2021/04/20 11:52:31;;;;;;;10.93;7.72;;;18.40;99.90;;;;;;5043647;28;20026;-80
2021/04/20 11:55:08;;;;;;;13.05;9.65;;;18.70;99.90;;;;;;5027612;28;20033;-80
2021/04/20 11:57:35;;;;;;;14.60;11.32;;;18.20;99.90;;;;;;5027032;28;20037;-80
2021/04/20 12:00:12;;;;;;;14.00;11.13;;;18.10;99.90;;;;;;5027303;28;20053;-80
2021/04/20 12:02:39;;;;;;;17.13;12.93;;;17.90;99.90;;;;;;5010868;28;20025;-80
2021/04/20 12:05:28;;;;;;;13.98;11.27;;;17.40;99.90;;;;;;5027191;28;20029;-80
2021/04/20 12:07:54;;;;;;;13.98;10.40;;;17.20;99.90;;;;;;4912952;29;20055;-81
2021/04/20 12:10:20;;;;;;;13.23;9.57;;;17.20;99.90;;;;;;4929214;29;20104;-81
2021/04/20 12:12:52;;;;;;;16.50;12.23;;;17.30;99.90;;;;;;4945025;29;20039;-80
2021/04/20 12:15:20;;;;;;;13.32;9.45;;;17.10;99.90;;;;;;4945072;29;20060;-80
2021/04/20 12:17:47;;;;;;;12.77;9.77;;;17.50;99.90;;;;;;4944658;29;20028;-80
2021/04/20 12:20:19;;;;;;;15.82;11.65;;;17.10;99.90;;;;;;4944830;29;20184;-79
2021/04/20 12:22:52;;;;;;;11.20;8.90;;;17.50;99.90;;;;;;4928890;29;20023;-79
2021/04/20 12:25:18;;;;;;;9.25;7.00;;;18.30;99.90;;;;;;4928859;29;20036;-79
2021/04/20 12:27:49;;;;;;;8.73;6.90;;;18.60;99.90;;;;;;4944796;29;20122;-80
2021/04/20 12:30:15;;;;;;;9.10;7.28;;;19.50;99.90;;;;;;4944834;29;20035;-80
2021/04/20 12:32:41;;;;;;;13.65;8.95;;;19.40;99.90;;;;;;4928772;29;20039;-79
2021/04/20 12:35:08;;;;;;;11.85;8.95;;;19.00;99.90;;;;;;4928590;29;20032;-79
2021/04/20 12:37:35;;;;;;;16.52;10.88;;;19.10;99.90;;;;;;4944584;29;20094;-79
2021/04/20 12:40:04;;;;;;;16.75;12.45;;;18.80;99.90;;;;;;4928660;29;20051;-79
2021/04/20 12:42:39;;;;;;;11.25;9.00;;;18.00;99.90;;;;;;4928668;29;20030;-79
2021/04/20 12:45:09;;;;;;;15.60;9.93;;;18.80;99.90;;;;;;4988523;28;20122;-79
2021/04/20 12:47:36;;;;;;;12.40;9.27;;;19.10;99.90;;;;;;5022573;28;20022;-79
2021/04/20 12:50:05;;;;;;;8.77;7.53;;;19.90;99.90;;;;;;5022413;28;20025;-79
2021/04/20 12:52:32;;;;;;;11.48;8.32;;;20.00;99.90;;;;;;5023206;28;20157;-79
2021/04/20 12:55:01;;;;;;;11.55;9.07;;;19.60;99.90;;;;;;5023195;28;20166;-79
2021/04/20 12:57:39;;;;;;;12.68;9.88;;;19.60;99.90;;;;;;5003909;28;20041;-79
2021/04/20 13:00:22;;;;;;;14.60;11.20;;;19.40;99.90;;;;;;5023160;28;20105;-79
2021/04/20 13:02:51;;;;;;;11.73;8.20;;;19.30;99.90;;;;;;5023149;28;20026;-79
2021/04/20 13:05:39;;;;;;;10.50;8.52;;;19.70;99.90;;;;;;5022975;28;20030;-78